Time;durP1;ratioP1;P1;durP2;ratioP2;P2;SDS_P1;SDS_P2;PMS_P1;PMS_P2;Temp;Humidity;BMP_temperature;BMP_pressure;BME280_temperature;BME280_humidity;BME280_pressure;Samples;Min_cycle;Max_cycle;Signal;HPM_P1;HPM_P2
2021/04/09 00:01:42;;;;;;;7.32;5.72;;;4.50;90.80;;;;;;5115568;28;20217;-71
2021/04/09 00:04:09;;;;;;;7.85;5.75;;;4.40;90.80;;;;;;5116185;28;20262;-71
2021/04/09 00:06:36;;;;;;;8.85;5.85;;;4.40;91.00;;;;;;5115706;28;20208;-70
2021/04/09 00:09:02;;;;;;;7.18;5.38;;;4.30;91.30;;;;;;5114639;28;20320;-69
2021/04/09 00:11:29;;;;;;;8.60;5.45;;;4.20;91.90;;;;;;5114668;28;20201;-68
2021/04/09 00:13:55;;;;;;;8.52;5.63;;;4.10;92.50;;;;;;5114629;28;20207;-69
2021/04/09 00:16:22;;;;;;;10.57;6.20;;;4.10;92.60;;;;;;5114398;28;20212;-69
2021/04/09 00:18:48;;;;;;;8.25;5.70;;;4.00;92.90;;;;;;5114654;28;20228;-70
2021/04/09 00:21:15;;;;;;;6.55;5.03;;;4.00;93.00;;;;;;5114311;28;20225;-68
2021/04/09 00:23:41;;;;;;;11.98;6.20;;;4.10;93.00;;;;;;5114703;28;20205;-69
2021/04/09 00:26:07;;;;;;;9.65;5.90;;;4.20;92.50;;;;;;5114364;28;20205;-67
2021/04/09 00:28:33;;;;;;;12.52;6.28;;;4.20;92.40;;;;;;5114270;28;20292;-68
2021/04/09 00:31:00;;;;;;;8.88;6.53;;;4.30;92.30;;;;;;5113977;28;20308;-68
2021/04/09 00:33:27;;;;;;;10.38;5.70;;;4.30;92.40;;;;;;5114302;28;20197;-68
2021/04/09 00:35:53;;;;;;;9.70;6.07;;;4.30;92.20;;;;;;5113960;28;20201;-69
2021/04/09 00:38:20;;;;;;;10.15;6.28;;;4.20;92.50;;;;;;5113934;28;20202;-68
2021/04/09 00:40:47;;;;;;;9.85;5.93;;;4.20;92.90;;;;;;5114112;28;20277;-68
2021/04/09 00:43:13;;;;;;;8.65;6.00;;;4.30;93.10;;;;;;5113942;28;20205;-69
2021/04/09 00:45:39;;;;;;;9.43;6.32;;;4.20;93.20;;;;;;5113826;28;20308;-67
2021/04/09 00:48:07;;;;;;;10.75;6.32;;;4.30;93.10;;;;;;5114065;28;20235;-68
2021/04/09 00:50:34;;;;;;;10.15;6.85;;;4.30;92.90;;;;;;5113816;28;20217;-68
2021/04/09 00:53:02;;;;;;;10.43;6.55;;;4.30;93.00;;;;;;5113886;28;20209;-69
2021/04/09 00:55:29;;;;;;;17.02;6.97;;;4.30;93.00;;;;;;5113269;28;20213;-68
2021/04/09 00:57:59;;;;;;;10.18;6.70;;;4.20;93.30;;;;;;5113467;28;20257;-68
2021/04/09 01:00:26;;;;;;;11.95;7.38;;;4.10;93.40;;;;;;5113602;28;20229;-69
2021/04/09 01:02:53;;;;;;;11.02;6.43;;;4.00;93.60;;;;;;5113462;28;20300;-67
2021/04/09 01:05:20;;;;;;;11.25;6.47;;;3.90;94.10;;;;;;5113598;28;20208;-68
2021/04/09 01:07:48;;;;;;;9.77;6.80;;;3.80;94.10;;;;;;5113334;28;20207;-68
2021/04/09 01:10:16;;;;;;;9.93;6.30;;;3.80;94.10;;;;;;5113274;28;20761;-71
2021/04/09 01:12:43;;;;;;;11.73;6.07;;;3.80;94.50;;;;;;5115516;28;20266;-69
2021/04/09 01:15:10;;;;;;;11.50;6.53;;;3.70;94.30;;;;;;5115597;28;20208;-69
2021/04/09 01:17:41;;;;;;;9.40;5.80;;;3.70;94.60;;;;;;5114930;28;20285;-68
2021/04/09 01:20:35;;;;;;;7.03;5.75;;;3.70;94.80;;;;;;5114759;28;20312;-69
2021/04/09 01:23:12;;;;;;;6.57;4.72;;;3.60;95.00;;;;;;5115711;28;20193;-69
2021/04/09 01:26:04;;;;;;;9.13;6.60;;;3.70;95.10;;;;;;5114909;28;20203;-69
2021/04/09 01:28:33;;;;;;;12.35;5.80;;;3.60;95.10;;;;;;5087498;28;20202;-69
2021/04/09 01:31:25;;;;;;;7.53;5.05;;;3.50;95.30;;;;;;5115437;28;20220;-68
2021/04/09 01:33:57;;;;;;;6.25;4.63;;;3.50;95.60;;;;;;5115056;28;20613;-69
2021/04/09 01:36:27;;;;;;;6.30;5.60;;;3.40;96.00;;;;;;5114632;28;20209;-69
2021/04/09 01:39:00;;;;;;;10.40;6.05;;;3.40;96.30;;;;;;5115265;28;20205;-69
2021/04/09 01:41:27;;;;;;;9.63;6.05;;;3.40;96.50;;;;;;5114610;28;20211;-69
2021/04/09 01:43:57;;;;;;;8.98;6.25;;;3.30;96.50;;;;;;5115633;28;20246;-69
2021/04/09 01:46:25;;;;;;;9.60;6.18;;;3.40;96.50;;;;;;5115061;28;20633;-68
2021/04/09 01:48:52;;;;;;;8.85;6.10;;;3.40;96.60;;;;;;5114492;28;20293;-69
2021/04/09 01:51:20;;;;;;;9.90;6.47;;;3.40;96.60;;;;;;5114729;28;20213;-68
2021/04/09 01:53:47;;;;;;;10.38;6.45;;;3.40;96.50;;;;;;5115212;28;20208;-68
2021/04/09 01:56:16;;;;;;;10.13;5.90;;;3.50;96.50;;;;;;5114788;28;20297;-69
2021/04/09 01:58:43;;;;;;;10.55;6.55;;;3.50;96.50;;;;;;5114823;28;20201;-68
2021/04/09 02:01:12;;;;;;;13.07;6.70;;;3.50;96.50;;;;;;5114863;28;20676;-68
2021/04/09 02:03:40;;;;;;;9.68;6.15;;;3.50;96.40;;;;;;5114903;28;20201;-68
2021/04/09 02:06:07;;;;;;;9.98;5.90;;;3.50;96.80;;;;;;5114898;28;20201;-68
2021/04/09 02:08:36;;;;;;;8.48;5.63;;;3.50;96.70;;;;;;5115689;28;20197;-69
2021/04/09 02:11:04;;;;;;;7.90;6.07;;;3.50;96.60;;;;;;5114683;28;20240;-69
2021/04/09 02:13:32;;;;;;;10.57;6.75;;;3.40;96.40;;;;;;5114770;28;20201;-68
2021/04/09 02:16:00;;;;;;;12.68;6.85;;;3.40;96.90;;;;;;5114781;28;20210;-69
2021/04/09 02:18:27;;;;;;;8.88;6.32;;;3.40;97.10;;;;;;5114867;28;20201;-68
2021/04/09 02:20:56;;;;;;;10.60;6.68;;;3.40;96.90;;;;;;5114635;28;20222;-68
2021/04/09 02:23:22;;;;;;;14.38;6.60;;;3.50;96.90;;;;;;5114904;28;20197;-68
2021/04/09 02:25:49;;;;;;;10.05;6.68;;;3.50;96.80;;;;;;5114276;28;20329;-69
2021/04/09 02:28:15;;;;;;;11.35;7.18;;;3.50;96.80;;;;;;5114689;28;20582;-69
2021/04/09 02:30:42;;;;;;;7.90;5.68;;;3.40;96.90;;;;;;5115108;28;20308;-68
2021/04/09 02:33:09;;;;;;;10.73;6.00;;;3.50;97.00;;;;;;5114852;28;20254;-68
2021/04/09 02:35:35;;;;;;;10.45;6.30;;;3.50;97.00;;;;;;5114710;28;20292;-68
2021/04/09 02:38:02;;;;;;;9.32;6.03;;;3.40;97.10;;;;;;5114762;28;20257;-68
2021/04/09 02:40:34;;;;;;;12.88;6.97;;;3.40;97.10;;;;;;5114334;28;20673;-68
2021/04/09 02:43:00;;;;;;;8.43;5.90;;;3.40;97.20;;;;;;5114741;28;20297;-68
2021/04/09 02:45:27;;;;;;;10.20;6.50;;;3.40;97.30;;;;;;5114409;28;20197;-69
2021/04/09 02:47:56;;;;;;;10.73;6.38;;;3.50;97.20;;;;;;5114824;28;20233;-68
2021/04/09 02:50:29;;;;;;;11.15;6.53;;;3.50;97.20;;;;;;5114480;28;20640;-68
2021/04/09 02:53:01;;;;;;;11.68;5.53;;;3.50;97.10;;;;;;5114222;28;20292;-69
2021/04/09 02:55:33;;;;;;;11.80;6.25;;;3.50;97.20;;;;;;5113905;28;20209;-68
2021/04/09 02:58:03;;;;;;;10.10;5.95;;;3.50;97.00;;;;;;5114044;28;20208;-69
2021/04/09 03:00:30;;;;;;;9.07;6.28;;;3.50;97.10;;;;;;5114419;28;20221;-68
2021/04/09 03:02:59;;;;;;;9.88;6.47;;;3.50;97.20;;;;;;5118217;28;20205;-68
2021/04/09 03:05:26;;;;;;;9.90;5.95;;;3.40;97.40;;;;;;5117600;28;20206;-67
2021/04/09 03:07:52;;;;;;;8.73;6.20;;;3.30;97.50;;;;;;5118003;28;20292;-68
2021/04/09 03:10:20;;;;;;;9.90;6.78;;;3.30;97.70;;;;;;5118080;28;20224;-68
2021/04/09 03:12:47;;;;;;;5.72;5.15;;;3.20;97.70;;;;;;5117984;27;20209;-68
2021/04/09 03:15:17;;;;;;;8.63;6.38;;;3.30;97.70;;;;;;5118200;28;20207;-68
2021/04/09 03:17:50;;;;;;;12.82;6.30;;;3.40;97.50;;;;;;5117624;28;20771;-68
2021/04/09 03:20:17;;;;;;;9.65;5.80;;;3.50;97.40;;;;;;5117999;28;20228;-68
2021/04/09 03:22:43;;;;;;;6.80;5.47;;;3.50;97.30;;;;;;5117530;28;20720;-68
2021/04/09 03:25:10;;;;;;;7.45;5.40;;;3.50;97.00;;;;;;5117733;28;20240;-68
2021/04/09 03:27:36;;;;;;;10.75;4.97;;;3.50;97.10;;;;;;5117399;28;20338;-68
2021/04/09 03:30:04;;;;;;;7.40;5.45;;;3.60;97.00;;;;;;5117723;28;20246;-68
2021/04/09 03:32:31;;;;;;;12.00;6.13;;;3.60;96.90;;;;;;5117226;28;20206;-68
2021/04/09 03:34:57;;;;;;;8.85;5.38;;;3.50;96.90;;;;;;5117314;28;20258;-68
2021/04/09 03:37:23;;;;;;;9.10;5.15;;;3.50;97.00;;;;;;5116666;28;20250;-68
2021/04/09 03:39:49;;;;;;;7.70;5.05;;;3.30;97.30;;;;;;5117104;28;20277;-68
2021/04/09 03:42:16;;;;;;;8.82;6.13;;;3.20;97.50;;;;;;5117105;28;20572;-68
2021/04/09 03:44:42;;;;;;;9.82;5.65;;;3.20;97.70;;;;;;5117309;28;20296;-68
2021/04/09 03:47:09;;;;;;;9.55;5.50;;;3.10;98.00;;;;;;5116730;28;20692;-68
2021/04/09 03:49:36;;;;;;;8.02;5.10;;;3.10;98.20;;;;;;5116390;28;20704;-68
2021/04/09 03:52:03;;;;;;;7.32;4.68;;;3.10;98.40;;;;;;5117299;28;20197;-68
2021/04/09 03:54:29;;;;;;;7.28;5.00;;;3.10;98.30;;;;;;5117100;28;20284;-68
2021/04/09 03:56:56;;;;;;;6.95;5.25;;;3.20;98.30;;;;;;5116387;28;20213;-68
2021/04/09 03:59:22;;;;;;;7.32;4.78;;;3.20;98.20;;;;;;5116346;28;20222;-68
2021/04/09 04:01:49;;;;;;;9.65;5.53;;;3.00;98.30;;;;;;5116495;28;20229;-68
2021/04/09 04:04:16;;;;;;;7.32;5.30;;;2.90;98.80;;;;;;5116290;28;20631;-68
2021/04/09 04:06:42;;;;;;;7.82;5.15;;;3.10;98.90;;;;;;5116331;28;20263;-68
2021/04/09 04:09:08;;;;;;;9.05;5.95;;;3.20;98.70;;;;;;5116824;27;20232;-68
2021/04/09 04:11:35;;;;;;;13.57;6.55;;;3.30;98.70;;;;;;5117250;28;20279;-68
2021/04/09 04:14:01;;;;;;;7.68;4.93;;;3.20;98.30;;;;;;5115722;28;20255;-68
2021/04/09 04:16:27;;;;;;;9.55;5.68;;;3.20;98.80;;;;;;5116503;28;20205;-68
2021/04/09 04:18:54;;;;;;;9.80;5.75;;;3.00;98.80;;;;;;5116685;28;20206;-68
2021/04/09 04:21:21;;;;;;;10.25;6.05;;;3.10;99.40;;;;;;5116683;28;20228;-68
2021/04/09 04:23:48;;;;;;;9.15;5.55;;;3.00;99.50;;;;;;5116538;28;20205;-68
2021/04/09 04:26:14;;;;;;;8.82;6.18;;;3.00;99.70;;;;;;5115965;28;20205;-68
2021/04/09 04:28:41;;;;;;;9.10;6.70;;;3.10;99.80;;;;;;5116488;28;20236;-68
2021/04/09 04:31:07;;;;;;;8.80;5.90;;;3.10;99.90;;;;;;5116154;28;20680;-68
2021/04/09 04:33:33;;;;;;;6.85;5.38;;;3.00;99.90;;;;;;5116455;28;20206;-68
2021/04/09 04:36:00;;;;;;;9.88;6.78;;;3.10;99.90;;;;;;5116038;28;20288;-68
2021/04/09 04:38:28;;;;;;;6.65;5.78;;;3.10;99.90;;;;;;5116404;28;20297;-68
2021/04/09 04:40:55;;;;;;;12.52;6.25;;;3.20;99.90;;;;;;5116097;28;20231;-68
2021/04/09 04:43:21;;;;;;;8.25;5.97;;;3.20;99.90;;;;;;5115690;28;20211;-68
2021/04/09 04:45:47;;;;;;;14.02;5.35;;;3.20;99.90;;;;;;5116045;28;20292;-68
2021/04/09 04:48:14;;;;;;;5.85;4.68;;;3.30;99.90;;;;;;5116036;28;20205;-68
2021/04/09 04:50:40;;;;;;;6.88;4.65;;;3.20;99.90;;;;;;5115920;28;20221;-68
2021/04/09 04:53:06;;;;;;;7.65;5.00;;;3.00;99.90;;;;;;5115831;27;20208;-68
2021/04/09 04:55:34;;;;;;;6.43;4.72;;;2.80;99.90;;;;;;5115210;28;20296;-67
2021/04/09 04:58:00;;;;;;;8.15;4.53;;;2.70;99.90;;;;;;5115246;28;20292;-68
2021/04/09 05:00:27;;;;;;;7.80;4.95;;;2.60;99.90;;;;;;5115527;28;20569;-68
2021/04/09 05:02:53;;;;;;;7.03;4.80;;;2.70;99.90;;;;;;5115723;28;20267;-68
2021/04/09 05:05:20;;;;;;;6.18;3.90;;;2.80;99.90;;;;;;5115314;28;20201;-68
2021/04/09 05:07:46;;;;;;;6.93;5.13;;;2.90;99.90;;;;;;5115201;27;20205;-68
2021/04/09 05:10:13;;;;;;;6.95;4.95;;;3.00;99.90;;;;;;5114966;28;20223;-68
2021/04/09 05:12:40;;;;;;;7.20;4.45;;;3.00;99.90;;;;;;5115455;28;20208;-68
2021/04/09 05:15:08;;;;;;;9.63;5.55;;;3.00;99.90;;;;;;5115484;28;20229;-68
2021/04/09 05:17:35;;;;;;;9.55;5.80;;;2.90;99.90;;;;;;5114787;28;20203;-68
2021/04/09 05:20:03;;;;;;;8.43;5.10;;;3.00;99.90;;;;;;5115107;28;20228;-68
2021/04/09 05:22:29;;;;;;;9.70;6.25;;;3.10;99.90;;;;;;5115539;28;20251;-68
2021/04/09 05:24:55;;;;;;;10.20;6.30;;;3.30;99.90;;;;;;5114519;28;20296;-68
2021/04/09 05:27:22;;;;;;;8.60;6.47;;;3.40;99.90;;;;;;5115232;28;20345;-68
2021/04/09 05:29:49;;;;;;;11.30;6.28;;;3.40;99.90;;;;;;5115396;28;20225;-68
2021/04/09 05:32:15;;;;;;;9.18;6.30;;;3.50;99.90;;;;;;5115785;28;20284;-68
2021/04/09 05:34:42;;;;;;;11.00;6.63;;;3.40;99.90;;;;;;5115287;28;20215;-68
2021/04/09 05:37:09;;;;;;;10.40;6.65;;;3.20;99.90;;;;;;5114972;28;20201;-68
2021/04/09 05:39:36;;;;;;;10.80;7.20;;;3.30;99.90;;;;;;5114931;28;20315;-68
2021/04/09 05:42:03;;;;;;;11.98;6.97;;;3.30;99.90;;;;;;5114924;28;20312;-68
2021/04/09 05:44:30;;;;;;;11.57;6.95;;;3.40;99.90;;;;;;5115587;28;20292;-68
2021/04/09 05:46:58;;;;;;;9.73;6.55;;;3.40;99.90;;;;;;5115388;28;20205;-68
2021/04/09 05:49:24;;;;;;;10.07;6.80;;;3.70;99.90;;;;;;5114965;28;20633;-68
2021/04/09 05:51:50;;;;;;;9.10;6.60;;;3.80;99.90;;;;;;5114538;28;20748;-68
2021/04/09 05:54:17;;;;;;;12.25;7.97;;;3.70;99.90;;;;;;5114390;28;20564;-68
2021/04/09 05:56:43;;;;;;;13.38;7.35;;;3.70;99.90;;;;;;5114723;28;20305;-68
2021/04/09 05:59:09;;;;;;;11.63;7.68;;;3.60;99.90;;;;;;5115163;28;20201;-68
2021/04/09 06:01:36;;;;;;;10.65;6.72;;;3.70;99.90;;;;;;5115428;28;20223;-68
2021/04/09 06:04:03;;;;;;;12.73;7.40;;;3.80;99.90;;;;;;5115424;27;20284;-68
2021/04/09 06:06:29;;;;;;;11.85;7.80;;;4.00;99.90;;;;;;5115090;28;20231;-69
2021/04/09 06:08:55;;;;;;;11.07;7.30;;;4.20;99.90;;;;;;5115229;28;20208;-68
2021/04/09 06:11:22;;;;;;;12.10;7.13;;;4.20;99.90;;;;;;5115238;28;20625;-68
2021/04/09 06:13:48;;;;;;;12.27;6.40;;;4.10;99.90;;;;;;5115386;28;20205;-68
2021/04/09 06:16:14;;;;;;;10.75;8.35;;;4.10;99.90;;;;;;5114953;28;20303;-68
2021/04/09 06:18:41;;;;;;;13.07;7.82;;;4.10;99.90;;;;;;5115498;28;20242;-68
2021/04/09 06:21:08;;;;;;;12.18;7.75;;;4.10;99.90;;;;;;5115060;28;20631;-68
2021/04/09 06:23:34;;;;;;;15.27;8.77;;;4.10;99.90;;;;;;5115487;28;20292;-68
2021/04/09 06:26:00;;;;;;;15.02;8.75;;;4.20;99.90;;;;;;5114675;28;20724;-69
2021/04/09 06:28:27;;;;;;;14.18;7.90;;;4.20;99.90;;;;;;5115400;28;20300;-68
2021/04/09 06:30:53;;;;;;;9.93;6.90;;;4.30;99.90;;;;;;5115063;28;20274;-68
2021/04/09 06:33:19;;;;;;;11.75;8.00;;;4.50;99.90;;;;;;5115624;28;20603;-68
2021/04/09 06:35:46;;;;;;;11.38;7.82;;;4.60;99.90;;;;;;5115607;28;20292;-69
2021/04/09 06:38:13;;;;;;;10.05;7.75;;;4.80;99.90;;;;;;5118209;28;20657;-68
2021/04/09 06:40:41;;;;;;;12.15;8.05;;;5.00;99.90;;;;;;5117968;28;20225;-68
2021/04/09 06:43:08;;;;;;;9.95;7.65;;;5.10;99.40;;;;;;5118328;28;20209;-69
2021/04/09 06:45:35;;;;;;;15.88;8.77;;;5.10;99.10;;;;;;5118435;28;20205;-69
2021/04/09 06:48:01;;;;;;;14.68;9.00;;;5.10;98.40;;;;;;5118631;28;20682;-68
2021/04/09 06:50:28;;;;;;;12.48;8.23;;;5.20;98.50;;;;;;5118317;27;20303;-69
2021/04/09 06:52:56;;;;;;;13.48;8.10;;;5.10;98.50;;;;;;5118894;28;20201;-68
2021/04/09 06:55:24;;;;;;;12.85;8.27;;;5.10;98.80;;;;;;5117577;28;20205;-68
2021/04/09 06:57:52;;;;;;;11.57;8.25;;;5.20;99.40;;;;;;5118642;28;20244;-68
2021/04/09 07:00:21;;;;;;;12.95;8.10;;;5.20;98.40;;;;;;5118817;28;20689;-68
2021/04/09 07:02:47;;;;;;;13.82;9.02;;;5.30;98.70;;;;;;5117797;28;20227;-68
2021/04/09 07:05:15;;;;;;;10.98;7.70;;;5.50;98.70;;;;;;5117627;28;20206;-69
2021/04/09 07:07:42;;;;;;;13.50;9.38;;;5.70;97.90;;;;;;5117326;28;20211;-68
2021/04/09 07:10:09;;;;;;;14.70;9.52;;;5.80;97.50;;;;;;5117338;28;20266;-69
2021/04/09 07:12:36;;;;;;;11.85;8.52;;;5.90;97.40;;;;;;5118087;28;20284;-68
2021/04/09 07:15:04;;;;;;;12.77;8.70;;;6.10;97.50;;;;;;5117342;28;20756;-69
2021/04/09 07:17:33;;;;;;;13.88;8.80;;;6.40;97.40;;;;;;5117184;28;20223;-69
2021/04/09 07:20:17;;;;;;;12.75;8.73;;;6.50;96.20;;;;;;5117084;28;20308;-69
2021/04/09 07:22:45;;;;;;;11.07;8.88;;;6.50;94.90;;;;;;5117289;28;20334;-68
2021/04/09 07:25:14;;;;;;;16.10;9.27;;;6.70;95.90;;;;;;5117227;28;20209;-69
2021/04/09 07:27:43;;;;;;;12.90;9.10;;;6.80;95.00;;;;;;5116847;28;20215;-69
2021/04/09 07:30:11;;;;;;;13.05;9.05;;;6.80;94.10;;;;;;5117219;28;20312;-69
2021/04/09 07:32:37;;;;;;;14.20;9.18;;;6.80;94.30;;;;;;5117684;28;20594;-68
2021/04/09 07:35:12;;;;;;;13.88;9.30;;;6.80;94.00;;;;;;5117299;28;20210;-69
2021/04/09 07:37:51;;;;;;;14.77;8.98;;;6.90;93.60;;;;;;5117081;28;20297;-69
2021/04/09 07:40:21;;;;;;;11.35;8.27;;;7.00;93.90;;;;;;5116532;27;20221;-69
2021/04/09 07:42:48;;;;;;;14.23;10.40;;;7.10;93.20;;;;;;5116754;28;20225;-69
2021/04/09 07:45:16;;;;;;;14.73;10.27;;;7.30;93.90;;;;;;5116877;28;20297;-69
2021/04/09 07:47:55;;;;;;;12.05;9.10;;;7.50;93.30;;;;;;5116424;28;20205;-69
2021/04/09 07:50:32;;;;;;;14.48;9.82;;;7.80;93.40;;;;;;5117559;28;20253;-69
2021/04/09 07:53:00;;;;;;;11.80;8.40;;;8.00;93.10;;;;;;5117704;27;20613;-68
2021/04/09 07:55:29;;;;;;;9.88;8.68;;;8.30;92.10;;;;;;5117329;27;20250;-69
2021/04/09 07:58:11;;;;;;;15.07;9.20;;;8.50;90.60;;;;;;5117556;28;20262;-69
2021/04/09 08:00:37;;;;;;;15.18;9.50;;;8.70;90.90;;;;;;5112504;28;20242;-69
2021/04/09 08:03:04;;;;;;;12.70;8.88;;;8.70;89.30;;;;;;5101780;28;20202;-69
2021/04/09 08:05:31;;;;;;;11.35;8.45;;;8.90;90.40;;;;;;5106637;28;20280;-70
2021/04/09 08:07:57;;;;;;;11.27;8.63;;;9.20;90.10;;;;;;5104388;28;20297;-70
2021/04/09 08:10:27;;;;;;;12.30;8.80;;;9.40;88.90;;;;;;5106640;28;20305;-69
2021/04/09 08:12:57;;;;;;;14.23;8.98;;;9.60;87.10;;;;;;5106063;28;20189;-70
2021/04/09 08:15:25;;;;;;;12.95;8.75;;;9.90;85.50;;;;;;5106149;28;20197;-70
2021/04/09 08:18:03;;;;;;;12.43;8.82;;;9.90;85.60;;;;;;5107060;28;20226;-69
2021/04/09 08:20:32;;;;;;;12.45;9.00;;;10.20;82.90;;;;;;5102860;28;20290;-69
2021/04/09 08:23:01;;;;;;;10.68;7.82;;;10.20;79.30;;;;;;5103506;28;20614;-69
2021/04/09 08:25:28;;;;;;;12.02;7.57;;;10.30;80.40;;;;;;5105563;28;20190;-69
2021/04/09 08:28:00;;;;;;;12.65;8.45;;;10.50;80.50;;;;;;5105631;28;20288;-69
2021/04/09 08:30:28;;;;;;;11.07;7.93;;;10.60;81.30;;;;;;5105526;28;20218;-69
2021/04/09 08:32:57;;;;;;;11.48;7.80;;;10.90;80.00;;;;;;5094099;28;20725;-70
2021/04/09 08:35:24;;;;;;;8.55;7.35;;;11.00;77.80;;;;;;5093997;28;20201;-69
2021/04/09 08:37:51;;;;;;;7.10;5.70;;;11.20;75.60;;;;;;5093965;28;20688;-69
2021/04/09 08:40:19;;;;;;;7.43;4.18;;;11.20;70.40;;;;;;5093825;28;20210;-70
2021/04/09 08:42:45;;;;;;;6.28;3.25;;;11.40;65.80;;;;;;5093996;28;20353;-69
2021/04/09 08:45:14;;;;;;;4.18;3.78;;;11.60;59.50;;;;;;5105357;28;20702;-70
2021/04/09 08:47:42;;;;;;;4.32;3.40;;;11.60;57.70;;;;;;5105153;28;20281;-70
2021/04/09 08:50:10;;;;;;;6.63;3.80;;;11.70;56.80;;;;;;5094901;28;20222;-70
2021/04/09 08:52:40;;;;;;;9.63;3.45;;;11.80;55.20;;;;;;5095137;28;20249;-69
2021/04/09 08:55:08;;;;;;;3.70;3.10;;;11.90;54.50;;;;;;5095177;28;20210;-70
2021/04/09 08:57:36;;;;;;;6.45;3.70;;;11.90;54.00;;;;;;5094937;28;20205;-70
2021/04/09 09:00:05;;;;;;;4.32;3.42;;;12.10;55.00;;;;;;5094447;28;20218;-70
2021/04/09 09:02:42;;;;;;;4.25;3.25;;;12.20;54.80;;;;;;5094470;28;20792;-70
2021/04/09 09:05:12;;;;;;;4.00;3.40;;;12.30;54.10;;;;;;5095159;28;20654;-70
2021/04/09 09:08:06;;;;;;;5.28;3.65;;;12.30;53.40;;;;;;5094813;28;20202;-70
2021/04/09 09:10:54;;;;;;;4.10;3.40;;;12.40;52.90;;;;;;5095054;28;20221;-70
2021/04/09 09:13:28;;;;;;;6.00;3.47;;;12.60;53.80;;;;;;5095374;28;20202;-70
2021/04/09 09:16:11;;;;;;;5.35;4.00;;;12.80;52.10;;;;;;5095045;28;20625;-69
2021/04/09 09:18:57;;;;;;;5.78;4.10;;;12.90;50.90;;;;;;5094690;28;20759;-70
2021/04/09 09:21:34;;;;;;;3.70;3.30;;;13.10;52.90;;;;;;5094843;28;20317;-70
2021/04/09 09:24:02;;;;;;;4.30;3.35;;;13.20;50.60;;;;;;5095387;28;20288;-70
2021/04/09 09:26:37;;;;;;;5.03;3.00;;;13.20;49.80;;;;;;5094724;28;20234;-70
2021/04/09 09:29:15;;;;;;;6.35;3.58;;;13.40;50.70;;;;;;5095706;28;20201;-70
2021/04/09 09:31:43;;;;;;;3.83;3.00;;;13.70;50.60;;;;;;5095529;28;20239;-70
2021/04/09 09:34:46;;;;;;;3.40;3.10;;;13.80;50.30;;;;;;5095585;28;20245;-70
2021/04/09 09:37:16;;;;;;;4.13;2.75;;;14.00;49.80;;;;;;5095592;28;20190;-70
2021/04/09 09:39:45;;;;;;;5.00;3.60;;;14.10;49.20;;;;;;5095599;28;20574;-70
2021/04/09 09:42:14;;;;;;;3.92;3.00;;;14.20;48.00;;;;;;5094899;28;20222;-70
2021/04/09 09:44:48;;;;;;;4.90;2.80;;;14.20;47.40;;;;;;5095262;28;20241;-70
2021/04/09 09:47:20;;;;;;;3.05;2.53;;;14.20;45.60;;;;;;5094737;28;20301;-70
2021/04/09 09:50:23;;;;;;;5.07;2.80;;;14.20;44.90;;;;;;5093964;28;20228;-70
2021/04/09 09:52:59;;;;;;;3.58;2.90;;;14.00;45.10;;;;;;5094427;28;20347;-70
2021/04/09 09:55:31;;;;;;;4.68;2.70;;;13.80;44.10;;;;;;5094029;28;20647;-69
2021/04/09 09:58:02;;;;;;;3.25;2.80;;;13.80;45.30;;;;;;5094192;28;20206;-70
2021/04/09 10:00:34;;;;;;;4.13;3.05;;;13.90;44.60;;;;;;5094764;28;20232;-70
2021/04/09 10:03:16;;;;;;;4.35;2.75;;;14.00;44.40;;;;;;5094390;28;20647;-70
2021/04/09 10:05:44;;;;;;;4.05;2.60;;;14.10;44.80;;;;;;5095224;28;20284;-71
2021/04/09 10:08:12;;;;;;;8.77;3.65;;;14.40;45.10;;;;;;5094459;28;20660;-70
2021/04/09 10:10:40;;;;;;;4.85;2.95;;;14.60;44.30;;;;;;5094160;28;20317;-70
2021/04/09 10:13:23;;;;;;;6.55;4.90;;;14.90;43.40;;;;;;5094964;28;20294;-70
2021/04/09 10:15:50;;;;;;;3.60;2.67;;;15.10;43.60;;;;;;5093448;28;20212;-70
2021/04/09 10:18:17;;;;;;;3.55;2.63;;;15.20;43.00;;;;;;5094720;28;20294;-70
2021/04/09 10:20:47;;;;;;;3.40;2.63;;;15.20;42.40;;;;;;5093795;28;20637;-70
2021/04/09 10:23:15;;;;;;;3.38;3.08;;;15.20;42.70;;;;;;5093505;28;20200;-70
2021/04/09 10:25:41;;;;;;;4.47;3.30;;;15.30;42.80;;;;;;5093607;28;20274;-70
2021/04/09 10:28:12;;;;;;;3.97;2.70;;;15.20;42.70;;;;;;5093662;28;20205;-70
2021/04/09 10:30:39;;;;;;;4.10;2.72;;;15.30;42.10;;;;;;5093888;28;20714;-70
2021/04/09 10:33:06;;;;;;;3.22;2.65;;;15.40;42.30;;;;;;5093490;28;20195;-70
2021/04/09 10:35:33;;;;;;;4.03;2.67;;;15.30;42.50;;;;;;5094051;28;20285;-70
2021/04/09 10:38:10;;;;;;;3.80;2.60;;;15.40;42.80;;;;;;5094008;28;20199;-70
2021/04/09 10:40:51;;;;;;;2.85;2.30;;;15.30;42.30;;;;;;5094165;28;20279;-70
2021/04/09 10:43:31;;;;;;;3.28;2.75;;;15.10;42.40;;;;;;5094260;28;20203;-70
2021/04/09 10:46:10;;;;;;;2.70;2.50;;;15.00;42.00;;;;;;5094399;28;20186;-69
2021/04/09 10:48:39;;;;;;;6.50;2.80;;;15.00;42.60;;;;;;5094323;28;20289;-70
2021/04/09 10:51:05;;;;;;;4.80;2.95;;;14.90;42.60;;;;;;5094718;28;20244;-71
2021/04/09 10:53:32;;;;;;;3.97;2.70;;;15.00;43.20;;;;;;5095228;28;20206;-70
2021/04/09 10:56:05;;;;;;;7.30;3.00;;;15.00;43.60;;;;;;5093583;28;20227;-70
2021/04/09 10:58:31;;;;;;;3.47;3.17;;;15.10;42.80;;;;;;5094464;28;20294;-70
2021/04/09 11:00:58;;;;;;;3.50;2.90;;;15.00;43.30;;;;;;5094349;28;20231;-70
2021/04/09 11:03:24;;;;;;;5.70;2.47;;;15.00;44.20;;;;;;5094138;28;20294;-70
2021/04/09 11:05:51;;;;;;;5.93;3.08;;;14.90;43.40;;;;;;5094233;28;20384;-69
2021/04/09 11:08:34;;;;;;;3.25;2.40;;;14.90;43.40;;;;;;5094409;28;20216;-70
2021/04/09 11:11:03;;;;;;;5.00;3.10;;;14.90;43.20;;;;;;5093990;28;20244;-70
2021/04/09 11:13:32;;;;;;;3.80;2.90;;;14.80;42.80;;;;;;5094489;28;20204;-70
2021/04/09 11:15:58;;;;;;;4.05;2.60;;;14.90;43.20;;;;;;5094268;28;20293;-70
2021/04/09 11:18:47;;;;;;;3.15;2.78;;;14.90;43.40;;;;;;5094351;28;20199;-70
2021/04/09 11:21:13;;;;;;;2.72;2.53;;;14.90;43.20;;;;;;5094682;28;20229;-70
2021/04/09 11:23:40;;;;;;;3.05;2.40;;;14.90;42.90;;;;;;5095850;28;20202;-70
2021/04/09 11:26:17;;;;;;;3.33;2.72;;;14.90;43.10;;;;;;5097104;28;20297;-70
2021/04/09 11:28:52;;;;;;;3.10;2.80;;;14.80;43.20;;;;;;5097581;28;20213;-70
2021/04/09 11:31:22;;;;;;;3.25;2.63;;;14.90;43.30;;;;;;5096262;28;20222;-71
2021/04/09 11:33:48;;;;;;;3.38;2.60;;;14.90;43.00;;;;;;5104844;28;20235;-71
2021/04/09 11:36:16;;;;;;;3.92;2.85;;;15.00;43.00;;;;;;5096141;28;20206;-71
2021/04/09 11:38:42;;;;;;;2.83;2.42;;;15.00;43.20;;;;;;5096025;28;20626;-72
2021/04/09 11:41:25;;;;;;;3.10;2.80;;;15.20;43.80;;;;;;5095731;28;20313;-71
2021/04/09 11:43:52;;;;;;;7.20;2.83;;;15.10;42.30;;;;;;5095609;28;20203;-71
2021/04/09 11:46:34;;;;;;;3.85;2.65;;;15.10;43.70;;;;;;5095616;28;20202;-71
2021/04/09 11:49:01;;;;;;;5.60;2.55;;;15.20;43.10;;;;;;5095494;28;20740;-69
2021/04/09 11:51:28;;;;;;;4.35;2.50;;;15.10;42.40;;;;;;5095686;28;20715;-75
2021/04/09 11:54:01;;;;;;;3.00;2.70;;;15.20;43.60;;;;;;5094557;28;20207;-74
2021/04/09 11:56:41;;;;;;;3.78;2.75;;;15.20;41.90;;;;;;5094948;28;20694;-72
2021/04/09 11:59:12;;;;;;;3.33;2.88;;;15.20;42.30;;;;;;5094905;28;20207;-72
2021/04/09 12:01:38;;;;;;;4.55;2.90;;;15.20;42.20;;;;;;5094775;28;20280;-71
2021/04/09 12:04:05;;;;;;;3.03;2.72;;;15.30;42.70;;;;;;5094746;28;20256;-73
2021/04/09 12:06:38;;;;;;;6.25;2.80;;;15.50;42.30;;;;;;5094423;28;20556;-72
2021/04/09 12:09:05;;;;;;;3.45;2.90;;;15.60;41.90;;;;;;5094969;28;20286;-71
2021/04/09 12:11:32;;;;;;;3.38;2.65;;;15.80;41.80;;;;;;5094804;28;20291;-71
2021/04/09 12:13:59;;;;;;;2.90;2.58;;;16.20;41.40;;;;;;5094854;28;20200;-70
2021/04/09 12:16:25;;;;;;;3.80;2.55;;;16.50;41.10;;;;;;5094405;28;20359;-69
2021/04/09 12:18:52;;;;;;;4.22;3.72;;;16.70;41.60;;;;;;5094442;28;20209;-70
2021/04/09 12:21:18;;;;;;;3.50;2.63;;;16.80;40.20;;;;;;5094340;28;20590;-70
2021/04/09 12:23:45;;;;;;;2.40;2.20;;;16.80;39.70;;;;;;5094874;28;20797;-70
2021/04/09 12:26:11;;;;;;;2.35;2.15;;;16.90;40.90;;;;;;5094205;28;20296;-70
2021/04/09 12:28:38;;;;;;;3.95;1.98;;;16.90;38.90;;;;;;5094433;28;20238;-69
2021/04/09 12:31:05;;;;;;;2.90;2.20;;;17.00;38.30;;;;;;5094151;28;20312;-70
2021/04/09 12:33:31;;;;;;;2.22;2.03;;;16.90;37.40;;;;;;5093658;28;20675;-70
2021/04/09 12:35:58;;;;;;;3.15;2.20;;;16.90;37.70;;;;;;5093565;28;20209;-69
2021/04/09 12:38:24;;;;;;;3.55;2.58;;;16.90;37.90;;;;;;5094284;28;20209;-70
2021/04/09 12:40:50;;;;;;;2.95;1.90;;;17.00;38.10;;;;;;5093848;28;20779;-70
2021/04/09 12:43:17;;;;;;;3.17;2.50;;;17.10;38.00;;;;;;5093813;28;20313;-68
2021/04/09 12:45:43;;;;;;;7.15;4.95;;;17.20;38.10;;;;;;5093675;28;20285;-71
2021/04/09 12:48:11;;;;;;;6.53;3.65;;;17.30;37.70;;;;;;5094446;28;20354;-71
2021/04/09 12:50:37;;;;;;;2.38;2.17;;;17.40;37.40;;;;;;5094293;28;20270;-71
2021/04/09 12:53:04;;;;;;;2.50;1.95;;;17.50;36.40;;;;;;5094192;28;20653;-71
2021/04/09 12:55:30;;;;;;;2.00;1.90;;;17.50;37.70;;;;;;5093978;28;20213;-73
2021/04/09 12:57:56;;;;;;;3.47;1.60;;;17.50;37.10;;;;;;5095070;28;20205;-72
2021/04/09 13:00:23;;;;;;;2.88;1.83;;;17.60;37.20;;;;;;5095052;28;20228;-73